Main page
Satellite images 10-day forecastsClimateMarine weather Cyclones Lightning AirportsFAQ Newsletter About
Weather : Europe Africa North America South America Asia Australia-Oceania Others
Languages Contact

London-Southend, England

London Southend Airport

latitude: 51-34N, longitude: 000-42E, elevation: 15 m


METAR: EGMC 312120Z 34007KT 9999 SCT011 BKN013 14/12 Q1014
TAF: EGMC 311959Z 3121/0106 33008KT 9999 SCT012 BKN020 TEMPO 3121/0106 BKN012 PROB30 TEMPO 3121/0106 BKN007

Time: 22:42 (21:42 UTC)

Current weather observation

The report was made 22 minutes ago, at 21:20 UTC
Wind 7 kt from the North/Northwest
Temperature 14°C
Humidity 88%
Pressure 1014 hPa
Visibility 10 km or more
Scattered clouds at a height of 1100 ft
Broken clouds at a height of 1300 ft

Change units

Forecast

The report was made 1 hour and 43 minutes ago, at 19:59 UTC
Forecast valid from 31 at 21 UTC to 01 at 06 UTC
Wind 8 kt from the North/Northwest
Visibility 10 km or more
Scattered clouds at a height of 1200 ft
Broken clouds at a height of 2000 ft
Temporary
from 31 at 21 UTC to 01 at 06 UTC
Broken clouds at a height of 1200 ft
Probability 30% :
Temporary
from 31 at 21 UTC to 01 at 06 UTC
Broken clouds at a height of 700 ft
The information on this site is subject to a disclaimer
Weather : Europe Africa North America South America Asia Australia-Oceania Others
Satellite images 10-day forecastsClimateMarine weather Cyclones Lightning AirportsFAQ Languages Contact Newsletter About